createdAt,value
2022-12-23T00:00:30.877Z,56.90
2022-12-23T00:03:19.163Z,56.40
2022-12-23T00:05:47.336Z,55.90
2022-12-23T00:08:15.535Z,57.40
2022-12-23T00:10:43.867Z,57.70
2022-12-23T00:13:30.564Z,57.60
2022-12-23T00:16:05.034Z,53.90
2022-12-23T00:18:33.824Z,54.40
2022-12-23T00:21:15.260Z,52.90
2022-12-23T00:23:47.389Z,54.10
2022-12-23T00:26:27.285Z,55.10
2022-12-23T00:28:57.849Z,54.30
2022-12-23T00:31:26.618Z,55.50
2022-12-23T00:33:54.917Z,51.30
2022-12-23T00:36:30.671Z,52.90
2022-12-23T00:39:18.440Z,49.60
2022-12-23T00:42:04.994Z,46.90
2022-12-23T00:44:33.285Z,43.30
2022-12-23T00:47:01.516Z,43.90
2022-12-23T00:49:41.980Z,47.40
2022-12-23T00:52:15.695Z,66.00
2022-12-23T00:54:44.030Z,58.10
2022-12-23T00:57:12.218Z,52.70
2022-12-23T00:59:40.477Z,56.40
2022-12-23T01:05:29.242Z,57.30
2022-12-23T01:07:57.388Z,56.10
2022-12-23T01:10:25.499Z,66.40
2022-12-23T01:12:53.634Z,66.50
2022-12-23T01:15:21.870Z,55.20
2022-12-23T01:17:49.930Z,50.90
2022-12-23T01:20:18.133Z,48.40
2022-12-23T01:22:46.259Z,47.20
2022-12-23T01:25:14.369Z,46.30
2022-12-23T01:27:42.550Z,47.80
2022-12-23T01:30:10.999Z,47.60
2022-12-23T01:32:39.151Z,45.50
2022-12-23T01:35:07.613Z,47.70
2022-12-23T01:37:35.788Z,46.10
2022-12-23T01:40:04.423Z,46.20
2022-12-23T01:42:45.002Z,44.30
2022-12-23T01:45:29.391Z,43.90
2022-12-23T01:48:22.702Z,35.90
2022-12-23T01:51:05.148Z,39.80
2022-12-23T01:53:49.043Z,40.20
2022-12-23T01:56:30.272Z,39.00
2022-12-23T01:59:03.628Z,41.30
2022-12-23T02:01:50.561Z,40.90
2022-12-23T02:04:24.609Z,41.60
2022-12-23T02:07:11.154Z,42.20
2022-12-23T02:09:40.644Z,46.60
2022-12-23T02:12:41.847Z,47.80
2022-12-23T02:15:51.289Z,47.40
2022-12-23T02:18:51.443Z,49.90
2022-12-23T02:21:47.716Z,42.70
2022-12-23T02:25:07.032Z,43.60
2022-12-23T02:28:31.495Z,50.40
2022-12-23T02:33:37.810Z,42.00
2022-12-23T02:36:16.998Z,47.20
2022-12-23T02:39:06.943Z,47.50
2022-12-23T02:41:57.730Z,46.20
2022-12-23T02:44:40.087Z,48.20
2022-12-23T02:47:17.184Z,54.70
2022-12-23T02:49:57.145Z,53.60
2022-12-23T02:52:31.873Z,50.50
2022-12-23T02:55:16.183Z,54.30
2022-12-23T02:57:49.032Z,50.60
2022-12-23T03:00:18.878Z,52.30
2022-12-23T03:02:47.689Z,52.10
2022-12-23T03:05:46.376Z,49.30
2022-12-23T03:08:30.038Z,51.50
2022-12-23T03:11:18.540Z,50.80
2022-12-23T03:14:04.947Z,49.20
2022-12-23T03:17:01.959Z,50.70
2022-12-23T03:19:32.439Z,49.30
2022-12-23T03:22:38.138Z,49.50
2022-12-23T03:25:23.176Z,48.30
2022-12-23T03:28:08.936Z,49.00
2022-12-23T03:30:40.755Z,47.90
2022-12-23T03:33:40.059Z,49.50
2022-12-23T03:36:15.761Z,52.40
2022-12-23T03:38:45.944Z,48.50
2022-12-23T03:41:21.813Z,50.60
2022-12-23T03:43:57.647Z,50.30
2022-12-23T03:46:40.247Z,52.40
2022-12-23T03:49:35.281Z,54.50
2022-12-23T03:52:11.756Z,53.80
2022-12-23T03:54:54.753Z,52.00
2022-12-23T03:57:30.497Z,49.00
2022-12-23T03:59:58.691Z,53.30
2022-12-23T04:02:34.084Z,54.50
2022-12-23T04:05:25.348Z,52.50
2022-12-23T04:08:00.345Z,52.30
2022-12-23T04:10:28.967Z,54.50
2022-12-23T04:12:57.541Z,53.90
2022-12-23T04:15:28.069Z,51.10
2022-12-23T04:17:58.077Z,53.00
2022-12-23T04:20:26.291Z,50.70
2022-12-23T04:22:54.475Z,50.50
2022-12-23T04:25:22.658Z,50.30
2022-12-23T04:27:50.858Z,48.70
2022-12-23T04:30:19.166Z,48.70
2022-12-23T04:32:47.357Z,46.10
2022-12-23T04:35:15.646Z,47.20
2022-12-23T04:37:43.782Z,49.90
2022-12-23T04:40:12.275Z,51.40
2022-12-23T04:42:40.576Z,48.20
2022-12-23T04:45:09.768Z,48.40
2022-12-23T04:47:37.925Z,49.10
2022-12-23T04:50:07.591Z,49.80
2022-12-23T04:52:35.723Z,45.20
2022-12-23T04:55:04.119Z,46.20
2022-12-23T04:57:32.256Z,46.60
2022-12-23T05:00:00.360Z,45.70
2022-12-23T05:02:28.730Z,49.30
2022-12-23T05:04:56.995Z,46.50
2022-12-23T05:07:25.359Z,48.40
2022-12-23T05:09:53.544Z,49.10
2022-12-23T05:12:21.822Z,48.10
2022-12-23T05:14:49.964Z,50.70
2022-12-23T05:17:18.074Z,50.30
2022-12-23T05:19:46.138Z,51.10
2022-12-23T05:22:14.316Z,49.60
2022-12-23T05:24:42.399Z,50.80
2022-12-23T05:27:10.532Z,47.50
2022-12-23T05:29:38.800Z,48.50
2022-12-23T05:32:07.065Z,47.60
2022-12-23T05:34:35.276Z,50.40
2022-12-23T05:37:03.412Z,51.20
2022-12-23T05:39:31.575Z,51.60
2022-12-23T05:41:59.683Z,52.90
2022-12-23T05:44:27.836Z,53.40
2022-12-23T05:46:55.959Z,52.70
2022-12-23T05:49:25.473Z,48.60
2022-12-23T05:51:53.606Z,46.50
2022-12-23T05:54:21.730Z,45.80
2022-12-23T05:56:49.864Z,44.20
2022-12-23T05:59:18.062Z,42.80
2022-12-23T06:01:46.240Z,44.90
2022-12-23T06:04:14.588Z,44.40
2022-12-23T06:06:42.721Z,44.00
2022-12-23T06:09:10.936Z,44.10
2022-12-23T06:11:39.061Z,45.40
2022-12-23T06:14:07.620Z,44.20
2022-12-23T06:16:35.930Z,43.40
2022-12-23T06:19:04.226Z,45.20
2022-12-23T06:21:32.394Z,43.10
2022-12-23T06:24:00.655Z,47.10
2022-12-23T06:26:28.861Z,45.70
2022-12-23T06:28:56.957Z,46.80
2022-12-23T06:31:25.156Z,49.80
2022-12-23T06:33:53.331Z,54.90
2022-12-23T06:36:21.514Z,52.60
2022-12-23T06:38:49.887Z,45.40
2022-12-23T06:41:18.584Z,45.80
2022-12-23T06:43:49.945Z,43.70
2022-12-23T06:46:22.273Z,44.90
2022-12-23T06:48:50.493Z,47.20
2022-12-23T06:51:19.053Z,48.40
2022-12-23T06:53:47.423Z,44.50
2022-12-23T06:56:15.579Z,45.50
2022-12-23T06:58:43.670Z,49.80
2022-12-23T07:01:12.104Z,45.80
2022-12-23T07:03:40.437Z,44.90
2022-12-23T07:06:08.681Z,47.10
2022-12-23T07:08:36.863Z,45.40
2022-12-23T07:11:05.882Z,53.40
2022-12-23T07:13:34.823Z,54.40
2022-12-23T07:16:09.642Z,56.50
2022-12-23T07:18:37.848Z,57.70
2022-12-23T07:21:09.122Z,53.20
2022-12-23T07:23:43.840Z,57.60
2022-12-23T07:26:11.956Z,52.10
2022-12-23T07:28:40.060Z,53.60
2022-12-23T07:31:08.225Z,53.70
2022-12-23T07:33:36.344Z,60.30
2022-12-23T07:36:04.933Z,63.40
2022-12-23T07:38:33.028Z,54.10
2022-12-23T07:41:01.128Z,64.60
2022-12-23T07:43:29.285Z,54.40
2022-12-23T07:46:00.311Z,58.70
2022-12-23T07:48:29.033Z,67.00
2022-12-23T07:51:04.082Z,72.50
2022-12-23T07:53:32.198Z,65.30
2022-12-23T07:56:00.332Z,57.70
2022-12-23T07:58:28.581Z,54.80
2022-12-23T08:01:10.213Z,51.40
2022-12-23T08:03:38.457Z,48.50
2022-12-23T08:06:12.667Z,49.70
2022-12-23T08:08:43.375Z,47.70
2022-12-23T08:11:13.606Z,50.00
2022-12-23T08:13:44.355Z,48.60
2022-12-23T08:16:12.963Z,50.20
2022-12-23T08:18:42.397Z,49.20
2022-12-23T08:21:15.662Z,50.90
2022-12-23T08:23:44.253Z,50.00
2022-12-23T08:26:21.665Z,55.80
2022-12-23T08:28:53.550Z,53.60
2022-12-23T08:31:28.951Z,51.20
2022-12-23T08:33:58.725Z,58.60
2022-12-23T08:36:31.816Z,60.40
2022-12-23T08:39:06.218Z,55.50
2022-12-23T08:41:40.283Z,53.80
2022-12-23T08:44:09.968Z,60.30
2022-12-23T08:46:38.255Z,62.70
2022-12-23T08:49:07.897Z,61.20
2022-12-23T08:51:38.052Z,55.80
2022-12-23T08:54:06.835Z,54.60
2022-12-23T08:56:40.570Z,48.60
2022-12-23T08:59:19.047Z,49.00
2022-12-23T09:01:48.453Z,48.10
2022-12-23T09:04:17.074Z,47.50
2022-12-23T09:06:45.696Z,49.50
2022-12-23T09:09:15.856Z,50.50
2022-12-23T09:11:44.212Z,52.20
2022-12-23T09:14:14.258Z,46.70
2022-12-23T09:16:42.393Z,47.20
2022-12-23T09:19:10.549Z,50.60
2022-12-23T09:21:38.675Z,57.10
2022-12-23T09:24:07.000Z,54.00
2022-12-23T09:26:35.388Z,51.00
2022-12-23T09:29:03.641Z,48.20
2022-12-23T09:31:36.513Z,47.80
2022-12-23T09:34:06.418Z,48.00
2022-12-23T09:36:34.567Z,48.60
2022-12-23T09:39:03.475Z,49.80
2022-12-23T09:41:48.631Z,44.40
2022-12-23T09:44:44.341Z,46.90
2022-12-23T09:47:19.249Z,40.80
2022-12-23T09:49:55.440Z,44.40
2022-12-23T09:52:54.919Z,42.50
2022-12-23T09:55:32.157Z,44.40
2022-12-23T09:58:36.562Z,42.30
2022-12-23T10:01:24.697Z,38.30
2022-12-23T10:04:27.213Z,41.50
2022-12-23T10:07:04.479Z,41.80
2022-12-23T10:09:41.302Z,41.40
2022-12-23T10:12:39.109Z,43.40
2022-12-23T10:15:42.112Z,52.80
2022-12-23T10:18:53.650Z,48.10
2022-12-23T10:21:36.429Z,49.10
2022-12-23T10:24:22.781Z,50.30
2022-12-23T10:27:13.599Z,45.90
2022-12-23T10:29:42.526Z,49.80
2022-12-23T10:32:43.869Z,46.50
2022-12-23T10:35:38.816Z,48.00
2022-12-23T10:38:35.419Z,42.90
2022-12-23T10:41:35.664Z,41.80
2022-12-23T10:44:47.280Z,41.60
2022-12-23T10:47:42.554Z,43.20
2022-12-23T10:50:47.551Z,43.90
2022-12-23T10:53:54.185Z,44.80
2022-12-23T10:56:23.316Z,41.00
2022-12-23T10:58:56.691Z,43.90
2022-12-23T11:01:27.300Z,43.60
2022-12-23T11:04:19.861Z,43.50
2022-12-23T11:07:10.818Z,41.50
2022-12-23T11:09:45.824Z,40.10
2022-12-23T11:12:15.036Z,40.20
2022-12-23T11:14:57.910Z,41.40
2022-12-23T11:17:29.939Z,41.00
2022-12-23T11:20:10.266Z,40.70
2022-12-23T11:22:58.246Z,40.30
2022-12-23T11:25:40.788Z,39.80
2022-12-23T11:28:22.275Z,36.60
2022-12-23T11:30:56.637Z,38.10
2022-12-23T11:33:31.369Z,37.70
2022-12-23T11:36:12.270Z,35.80
2022-12-23T11:39:13.912Z,36.20
2022-12-23T11:41:47.854Z,39.50
2022-12-23T11:44:31.882Z,37.20
2022-12-23T11:47:23.012Z,38.70
2022-12-23T11:49:54.990Z,39.20
2022-12-23T11:52:31.296Z,39.70
2022-12-23T11:55:02.516Z,36.80
2022-12-23T11:57:33.372Z,37.20
2022-12-23T12:00:04.892Z,37.10
2022-12-23T12:02:41.940Z,38.70
2022-12-23T12:05:51.694Z,36.50
2022-12-23T12:08:24.980Z,38.30
2022-12-23T12:11:00.855Z,36.30
2022-12-23T12:13:42.421Z,37.20
2022-12-23T12:16:47.610Z,39.90
2022-12-23T12:19:25.031Z,37.20
2022-12-23T12:22:00.774Z,33.70
2022-12-23T12:24:40.415Z,37.90
2022-12-23T12:27:11.947Z,35.70
2022-12-23T12:30:04.542Z,36.60
2022-12-23T12:33:00.888Z,34.50
2022-12-23T12:35:44.236Z,36.10
2022-12-23T12:38:30.177Z,36.00
2022-12-23T12:41:07.374Z,35.50
2022-12-23T12:43:46.599Z,34.90
2022-12-23T12:47:15.993Z,34.00
2022-12-23T12:50:06.416Z,34.40
2022-12-23T12:52:40.721Z,34.30
2022-12-23T12:55:29.283Z,33.20
2022-12-23T12:57:57.713Z,34.00
2022-12-23T13:00:25.972Z,35.00
2022-12-23T13:03:28.923Z,33.50
2022-12-23T13:06:00.583Z,33.50
2022-12-23T13:09:02.106Z,35.20
2022-12-23T13:11:56.158Z,35.80
2022-12-23T13:14:54.294Z,34.90
2022-12-23T13:17:35.148Z,34.80
2022-12-23T13:20:24.093Z,33.60
2022-12-23T13:23:20.839Z,33.20
2022-12-23T13:26:05.451Z,32.00
2022-12-23T13:29:08.341Z,32.00
2022-12-23T13:32:28.360Z,33.90
2022-12-23T13:35:33.655Z,30.50
2022-12-23T13:38:38.656Z,32.60
2022-12-23T13:41:36.960Z,33.60
2022-12-23T13:44:09.622Z,32.80
2022-12-23T13:46:52.349Z,31.00
2022-12-23T13:49:58.561Z,35.50
2022-12-23T13:52:34.067Z,32.90
2022-12-23T13:55:57.871Z,28.20
2022-12-23T13:58:31.301Z,31.00
2022-12-23T14:01:08.669Z,32.30
2022-12-23T14:03:39.101Z,32.10
2022-12-23T14:06:39.481Z,36.70
2022-12-23T14:09:08.027Z,31.90
2022-12-23T14:11:36.762Z,36.30
2022-12-23T14:14:17.365Z,35.50
2022-12-23T14:17:10.303Z,31.80
2022-12-23T14:20:18.008Z,34.10
2022-12-23T14:23:33.403Z,34.30
2022-12-23T14:26:32.119Z,30.60
2022-12-23T14:29:09.170Z,32.90
2022-12-23T14:31:44.701Z,31.70
2022-12-23T14:34:18.831Z,32.00
2022-12-23T14:37:30.012Z,33.90
2022-12-23T14:39:59.513Z,34.00
2022-12-23T14:42:45.938Z,33.30
2022-12-23T14:45:42.361Z,35.80
2022-12-23T14:48:44.671Z,35.50
2022-12-23T14:51:25.401Z,37.00
2022-12-23T14:53:59.434Z,34.80
2022-12-23T14:56:39.516Z,33.00
2022-12-23T14:59:07.586Z,35.20
2022-12-23T15:01:48.214Z,35.10
2022-12-23T15:04:21.673Z,37.70
2022-12-23T15:09:37.420Z,52.00
2022-12-23T15:12:14.835Z,63.60
2022-12-23T15:14:57.700Z,49.70
2022-12-23T15:17:36.269Z,45.20
2022-12-23T15:20:11.093Z,48.00
2022-12-23T15:22:42.617Z,62.30
2022-12-23T15:25:33.682Z,53.90
2022-12-23T15:28:03.608Z,49.10
2022-12-23T15:30:45.239Z,49.70
2022-12-23T15:34:02.181Z,46.00
2022-12-23T15:36:10.489Z,44.70
2022-12-23T15:38:39.693Z,46.80
2022-12-23T15:41:17.278Z,319.60
2022-12-23T15:43:46.434Z,204.60
2022-12-23T15:46:29.157Z,141.60
2022-12-23T15:48:58.485Z,96.40
2022-12-23T15:52:07.108Z,59.10
2022-12-23T15:54:34.796Z,44.40
2022-12-23T15:57:04.209Z,43.40
2022-12-23T15:59:38.852Z,52.30
2022-12-23T16:02:59.786Z,52.60
2022-12-23T16:05:33.030Z,48.50
2022-12-23T16:08:16.543Z,56.80
2022-12-23T16:11:18.376Z,66.10
2022-12-23T16:14:00.200Z,53.20
2022-12-23T16:16:42.701Z,52.00
2022-12-23T16:19:44.656Z,51.70
2022-12-23T16:22:38.047Z,52.50
2022-12-23T16:25:14.997Z,57.70
2022-12-23T16:27:46.493Z,56.40
2022-12-23T16:30:22.290Z,53.20
2022-12-23T16:32:56.273Z,52.00
2022-12-23T16:35:31.595Z,53.60
2022-12-23T16:38:10.325Z,53.60
2022-12-23T16:40:38.822Z,54.30
2022-12-23T16:43:07.282Z,51.70
2022-12-23T16:45:37.284Z,53.40
2022-12-23T16:48:21.026Z,52.90
2022-12-23T16:50:50.020Z,53.40
2022-12-23T16:53:18.260Z,53.70
2022-12-23T16:55:53.858Z,55.30
2022-12-23T16:58:26.772Z,65.80
2022-12-23T17:00:55.655Z,62.20
2022-12-23T17:03:23.878Z,66.00
2022-12-23T17:05:52.006Z,94.10
2022-12-23T17:08:21.010Z,115.00
2022-12-23T17:10:50.275Z,84.30
2022-12-23T17:13:18.878Z,98.90
2022-12-23T17:15:47.011Z,88.40
2022-12-23T17:18:18.456Z,74.90
2022-12-23T17:20:48.879Z,67.40
2022-12-23T17:23:31.244Z,96.70
2022-12-23T17:25:59.358Z,66.30
2022-12-23T17:28:32.544Z,66.10
2022-12-23T17:33:32.202Z,54.80
2022-12-23T17:36:01.120Z,73.20
2022-12-23T17:38:30.061Z,74.70
2022-12-23T17:40:58.684Z,77.50
2022-12-23T17:43:27.379Z,74.10
2022-12-23T17:45:55.575Z,69.10
2022-12-23T17:48:29.551Z,65.10
2022-12-23T17:50:59.805Z,57.70
2022-12-23T17:53:27.890Z,57.60
2022-12-23T17:55:56.039Z,61.40
2022-12-23T17:58:24.179Z,57.60
2022-12-23T18:00:52.459Z,56.90
2022-12-23T18:03:23.829Z,55.20
2022-12-23T18:05:59.361Z,45.00
2022-12-23T18:08:29.699Z,47.50
2022-12-23T18:10:58.510Z,44.80
2022-12-23T18:13:26.680Z,43.20
2022-12-23T18:15:54.834Z,39.40
2022-12-23T18:18:31.308Z,39.20
2022-12-23T18:21:05.443Z,34.20
2022-12-23T18:23:34.807Z,35.00
2022-12-23T18:26:03.319Z,35.90
2022-12-23T18:28:31.485Z,33.90
2022-12-23T18:30:59.691Z,38.90
2022-12-23T18:33:29.434Z,39.30
2022-12-23T18:35:58.016Z,37.80
2022-12-23T18:38:26.170Z,42.80
2022-12-23T18:40:56.692Z,72.00
2022-12-23T18:43:25.570Z,48.60
2022-12-23T18:45:54.334Z,53.60
2022-12-23T18:48:22.819Z,56.60
2022-12-23T18:50:50.985Z,50.00
2022-12-23T18:53:24.528Z,50.60
2022-12-23T18:55:54.798Z,45.00
2022-12-23T18:58:24.422Z,44.50
2022-12-23T19:00:53.194Z,40.80
2022-12-23T19:03:31.740Z,43.50
2022-12-23T19:06:06.641Z,43.90
2022-12-23T19:08:37.297Z,48.50
2022-12-23T19:11:19.014Z,52.80
2022-12-23T19:13:48.324Z,50.70
2022-12-23T19:16:19.597Z,50.80
2022-12-23T19:18:49.385Z,46.80
2022-12-23T19:21:18.303Z,48.70
2022-12-23T19:23:46.402Z,48.40
2022-12-23T19:26:15.041Z,47.60
2022-12-23T19:28:43.597Z,49.10
2022-12-23T19:31:14.938Z,48.40
2022-12-23T19:33:46.216Z,46.80
2022-12-23T19:36:24.239Z,46.60
2022-12-23T19:38:52.708Z,42.20
2022-12-23T19:41:20.828Z,44.10
2022-12-23T19:43:49.010Z,47.40
2022-12-23T19:46:17.749Z,47.70
2022-12-23T19:48:52.331Z,52.10
2022-12-23T19:51:20.692Z,50.70
2022-12-23T19:53:51.745Z,42.90
2022-12-23T19:56:21.253Z,41.50
2022-12-23T19:58:49.929Z,40.30
2022-12-23T20:01:22.439Z,43.40
2022-12-23T20:03:52.873Z,50.10
2022-12-23T20:06:34.204Z,45.80
2022-12-23T20:09:06.527Z,49.10
2022-12-23T20:11:41.961Z,50.60
2022-12-23T20:14:11.472Z,48.30
2022-12-23T20:16:40.806Z,46.50
2022-12-23T20:19:09.076Z,47.80
2022-12-23T20:21:37.736Z,47.50
2022-12-23T20:24:06.848Z,49.30
2022-12-23T20:26:35.104Z,48.60
2022-12-23T20:29:03.997Z,53.60
2022-12-23T20:31:35.655Z,48.70
2022-12-23T20:34:07.872Z,53.90
2022-12-23T20:36:36.788Z,53.20
2022-12-23T20:39:06.226Z,56.40
2022-12-23T20:41:34.523Z,55.20
2022-12-23T20:44:32.947Z,57.20
2022-12-23T20:46:50.895Z,55.80
2022-12-23T20:49:19.137Z,62.30
2022-12-23T20:51:47.246Z,61.90
2022-12-23T20:54:15.586Z,61.00
2022-12-23T20:56:43.711Z,56.70
2022-12-23T20:59:11.834Z,59.00
2022-12-23T21:01:40.982Z,72.50
2022-12-23T21:04:15.956Z,65.80
2022-12-23T21:06:44.750Z,64.30
2022-12-23T21:09:15.692Z,64.20
2022-12-23T21:11:46.924Z,60.50
2022-12-23T21:14:15.894Z,57.20
2022-12-23T21:16:45.154Z,56.00
2022-12-23T21:19:20.374Z,57.40
2022-12-23T21:21:49.925Z,57.50
2022-12-23T21:24:18.846Z,58.10
2022-12-23T21:26:55.399Z,59.30
2022-12-23T21:29:25.841Z,60.00
2022-12-23T21:31:55.190Z,57.90
2022-12-23T21:34:23.782Z,57.40
2022-12-23T21:36:51.998Z,75.60
2022-12-23T21:39:20.244Z,67.50
2022-12-23T21:41:51.048Z,69.00
2022-12-23T21:44:19.338Z,61.40
2022-12-23T21:46:51.080Z,59.00
2022-12-23T21:49:20.234Z,63.50
2022-12-23T21:51:48.499Z,42.90
2022-12-23T21:54:16.728Z,38.80
2022-12-23T21:56:44.894Z,36.20
2022-12-23T21:59:15.211Z,37.40
2022-12-23T22:01:44.019Z,37.00
2022-12-23T22:04:12.586Z,36.30
2022-12-23T22:06:44.051Z,37.50
2022-12-23T22:09:18.051Z,36.30
2022-12-23T22:11:48.259Z,34.40
2022-12-23T22:14:19.679Z,37.90
2022-12-23T22:16:47.878Z,37.40
2022-12-23T22:19:16.334Z,37.40
2022-12-23T22:21:44.572Z,35.90
2022-12-23T22:24:12.846Z,37.40
2022-12-23T22:26:41.986Z,37.10
2022-12-23T22:29:11.342Z,36.50
2022-12-23T22:31:53.391Z,37.40
2022-12-23T22:34:23.323Z,38.30
2022-12-23T22:36:51.523Z,42.30
2022-12-23T22:39:21.651Z,40.90
2022-12-23T22:41:51.398Z,41.10
2022-12-23T22:44:21.297Z,39.30
2022-12-23T22:46:50.047Z,42.00
2022-12-23T22:49:18.524Z,38.00
2022-12-23T22:51:46.761Z,38.00
2022-12-23T22:54:15.110Z,36.90
2022-12-23T22:56:46.005Z,42.40
2022-12-23T22:59:25.288Z,40.40
2022-12-23T23:01:54.323Z,41.80
2022-12-23T23:04:23.334Z,41.20
2022-12-23T23:06:51.579Z,43.20
2022-12-23T23:09:22.034Z,38.10
2022-12-23T23:11:50.633Z,38.20
2022-12-23T23:14:20.363Z,42.50
2022-12-23T23:16:48.841Z,43.00
2022-12-23T23:19:20.336Z,40.10
2022-12-23T23:21:48.958Z,39.20
2022-12-23T23:24:17.614Z,39.60
2022-12-23T23:26:45.786Z,44.80
2022-12-23T23:29:14.997Z,41.30
2022-12-23T23:31:44.210Z,40.00
2022-12-23T23:34:13.549Z,40.60
2022-12-23T23:36:41.916Z,39.00
2022-12-23T23:39:13.078Z,38.20
2022-12-23T23:41:41.742Z,38.60
2022-12-23T23:44:11.327Z,37.60
2022-12-23T23:46:40.236Z,34.30
2022-12-23T23:49:08.628Z,37.30
2022-12-23T23:51:37.258Z,38.50
2022-12-23T23:54:06.511Z,38.00
2022-12-23T23:56:38.846Z,40.40
2022-12-23T23:59:09.345Z,42.90
